Time;durP1;ratioP1;P1;durP2;ratioP2;P2;SDS_P1;SDS_P2;PMS_P1;PMS_P2;Temp;Humidity;BMP_temperature;BMP_pressure;BME280_temperature;BME280_humidity;BME280_pressure;Samples;Min_cycle;Max_cycle;Signal;HPM_P1;HPM_P2
2021/06/10 00:01:29;;;;;;;1.40;1.27;;;;;;;15.82;66.89;97676.47;1753219;82;21046;-64
2021/06/10 00:03:56;;;;;;;2.10;1.30;;;;;;;15.81;67.43;97680.07;1753759;82;21092;-69
2021/06/10 00:06:23;;;;;;;1.75;1.30;;;;;;;15.80;66.65;97687.60;1753565;82;21061;-66
2021/06/10 00:08:50;;;;;;;3.00;1.50;;;;;;;15.68;69.17;97685.45;1753334;82;21030;-64
2021/06/10 00:11:17;;;;;;;1.85;1.50;;;;;;;15.66;69.47;97682.70;1753427;82;21022;-66
2021/06/10 00:13:44;;;;;;;2.37;1.80;;;;;;;15.56;70.31;97684.27;1753837;82;20970;-65
2021/06/10 00:16:11;;;;;;;1.30;1.10;;;;;;;15.54;69.15;97688.89;1753398;82;21092;-65
2021/06/10 00:18:38;;;;;;;1.70;1.50;;;;;;;15.49;70.35;97679.45;1753715;82;21489;-65
2021/06/10 00:21:06;;;;;;;3.85;1.42;;;;;;;15.46;70.62;97683.71;1753306;82;21021;-65
2021/06/10 00:23:32;;;;;;;1.87;1.47;;;;;;;15.44;70.42;97681.78;1753340;82;21034;-65
2021/06/10 00:25:59;;;;;;;1.77;1.15;;;;;;;15.42;70.36;97682.45;1752971;82;21144;-65
2021/06/10 00:28:26;;;;;;;1.72;1.30;;;;;;;15.41;70.63;97686.53;1753104;82;21002;-65
2021/06/10 00:30:53;;;;;;;2.67;1.42;;;;;;;15.37;70.39;97680.85;1753459;82;20966;-65
2021/06/10 00:33:20;;;;;;;3.22;1.67;;;;;;;15.33;69.39;97679.58;1753094;82;21034;-65
2021/06/10 00:35:47;;;;;;;2.30;1.45;;;;;;;15.31;70.99;97678.15;1753300;82;21033;-64
2021/06/10 00:38:13;;;;;;;1.67;1.32;;;;;;;15.26;70.84;97686.53;1753044;82;21105;-65
2021/06/10 00:40:40;;;;;;;1.98;1.17;;;;;;;15.21;70.58;97680.52;1753388;82;20982;-64
2021/06/10 00:43:07;;;;;;;4.12;1.60;;;;;;;15.22;69.25;97685.26;1753315;82;21058;-64
2021/06/10 00:45:34;;;;;;;2.42;1.30;;;;;;;15.20;70.11;97675.48;1752951;82;21041;-64
2021/06/10 00:48:01;;;;;;;3.42;1.20;;;;;;;15.17;69.01;97669.31;1753264;82;21051;-64
2021/06/10 00:50:41;;;;;;;1.77;1.20;;;;;;;15.15;69.58;97676.50;1753443;82;21021;-64
2021/06/10 00:53:08;;;;;;;1.25;1.05;;;;;;;15.10;68.45;97663.95;1744750;82;21117;-65
2021/06/10 00:55:37;;;;;;;1.95;1.70;;;;;;;15.08;68.32;97664.64;1752305;81;21029;-64
2021/06/10 00:58:04;;;;;;;2.35;1.50;;;;;;;15.05;67.25;97662.88;1750618;82;21041;-65
2021/06/10 01:00:31;;;;;;;3.67;1.65;;;;;;;15.02;68.40;97659.29;1750867;82;21033;-64
2021/06/10 01:02:58;;;;;;;1.15;1.05;;;;;;;14.98;67.56;97657.53;1750867;82;21045;-64
2021/06/10 01:05:25;;;;;;;1.57;1.40;;;;;;;14.96;68.08;97660.02;1750735;82;21573;-65
2021/06/10 01:08:00;;;;;;;3.10;1.50;;;;;;;14.94;68.08;97665.41;1750908;82;21167;-64
2021/06/10 01:10:50;;;;;;;2.05;1.07;;;;;;;14.91;67.46;97661.84;1751214;81;21070;-64
2021/06/10 01:14:00;;;;;;;1.72;1.20;;;;;;;14.90;67.28;97662.05;1750776;81;21096;-64
2021/06/10 01:16:30;;;;;;;2.00;1.00;;;;;;;14.84;67.00;97666.16;1750647;82;21034;-64
2021/06/10 01:19:01;;;;;;;1.87;1.07;;;;;;;14.78;69.18;97657.73;1729640;82;21544;-64
2021/06/10 01:21:29;;;;;;;3.83;1.75;;;;;;;14.72;69.52;97657.92;1751073;82;21180;-66
2021/06/10 01:24:29;;;;;;;2.10;1.30;;;;;;;14.62;71.32;97656.06;1729603;82;21577;-64
2021/06/10 01:27:27;;;;;;;2.25;1.40;;;;;;;14.58;70.09;97657.40;1750946;82;21532;-65
2021/06/10 01:29:58;;;;;;;2.37;1.60;;;;;;;14.55;69.84;97659.03;1751110;81;21042;-68
2021/06/10 01:32:26;;;;;;;1.27;1.00;;;;;;;14.54;68.26;97652.69;1751069;81;21085;-68
2021/06/10 01:34:55;;;;;;;3.25;1.17;;;;;;;14.51;69.57;97653.84;1730052;82;21072;-65
2021/06/10 01:37:23;;;;;;;1.55;1.10;;;;;;;14.51;69.64;97653.84;1750836;82;21501;-64
2021/06/10 01:39:53;;;;;;;3.27;1.62;;;;;;;14.51;69.92;97655.66;1750853;82;21080;-66
2021/06/10 01:42:21;;;;;;;2.00;1.20;;;;;;;14.48;68.72;97663.33;1750957;82;21017;-64
2021/06/10 01:44:49;;;;;;;2.62;1.32;;;;;;;14.46;68.30;97668.42;1750499;82;21042;-64
2021/06/10 01:47:17;;;;;;;2.40;1.12;;;;;;;14.41;67.49;97668.94;1750842;81;21514;-64
2021/06/10 01:49:44;;;;;;;5.05;1.35;;;;;;;14.37;66.93;97668.15;1750535;82;21034;-64
2021/06/10 01:52:11;;;;;;;1.90;1.25;;;;;;;14.34;68.26;97670.59;1750753;82;21038;-64
2021/06/10 01:54:39;;;;;;;2.10;1.20;;;;;;;14.29;68.88;97668.98;1750792;82;21124;-65
2021/06/10 01:57:09;;;;;;;4.60;1.25;;;;;;;14.26;67.80;97661.50;1701511;82;21040;-65
2021/06/10 01:59:36;;;;;;;3.50;1.25;;;;;;;14.19;72.26;97667.09;1701086;83;21044;-65
2021/06/10 02:02:05;;;;;;;1.55;1.02;;;;;;;14.15;70.62;97671.04;1708836;84;21027;-65
2021/06/10 02:04:34;;;;;;;2.58;1.50;;;;;;;14.05;73.70;97667.33;1700804;84;21103;-65
2021/06/10 02:07:02;;;;;;;1.57;1.30;;;;;;;14.01;73.33;97665.22;1701269;84;21121;-65
2021/06/10 02:09:29;;;;;;;2.90;1.52;;;;;;;13.98;72.40;97669.00;1708400;83;21089;-65
2021/06/10 02:11:57;;;;;;;3.02;1.50;;;;;;;13.98;72.70;97667.69;1700939;84;21052;-65
2021/06/10 02:14:26;;;;;;;3.17;1.52;;;;;;;13.96;74.05;97669.67;1700648;84;21120;-65
2021/06/10 02:16:54;;;;;;;2.02;1.35;;;;;;;13.92;74.41;97668.87;1708645;83;21067;-65
2021/06/10 02:19:21;;;;;;;2.05;1.37;;;;;;;13.85;75.16;97672.64;1701224;84;21065;-65
2021/06/10 02:21:48;;;;;;;2.83;1.60;;;;;;;13.86;74.17;97669.55;1708322;83;21060;-64
2021/06/10 02:24:16;;;;;;;2.30;1.05;;;;;;;13.86;74.62;97669.05;1701195;84;21033;-65
2021/06/10 02:26:44;;;;;;;2.33;1.10;;;;;;;13.88;74.06;97663.19;1701322;84;21043;-64
2021/06/10 02:29:11;;;;;;;3.42;1.60;;;;;;;13.92;73.53;97660.56;1701261;84;21045;-64
2021/06/10 02:31:38;;;;;;;2.65;1.47;;;;;;;13.96;73.63;97662.33;1708528;83;21048;-64
2021/06/10 02:34:06;;;;;;;2.15;1.65;;;;;;;13.99;73.01;97661.98;1708606;84;21125;-66
2021/06/10 02:36:36;;;;;;;1.65;1.20;;;;;;;14.01;73.39;97662.13;1708676;83;21055;-65
2021/06/10 02:39:07;;;;;;;2.70;1.27;;;;;;;14.05;72.44;97663.41;1708776;84;21497;-65
2021/06/10 02:41:38;;;;;;;1.82;1.12;;;;;;;14.04;72.09;97662.30;1708565;84;21193;-65
2021/06/10 02:44:08;;;;;;;2.35;1.75;;;;;;;14.07;71.76;97660.15;1701168;84;20976;-65
2021/06/10 02:46:36;;;;;;;1.27;1.00;;;;;;;14.07;71.04;97653.63;1701310;84;21099;-64
2021/06/10 02:49:04;;;;;;;2.08;1.50;;;;;;;14.10;70.91;97661.11;1701131;83;21703;-65
2021/06/10 02:51:33;;;;;;;1.42;1.25;;;;;;;14.12;71.62;97657.03;1708991;83;21196;-64
2021/06/10 02:54:06;;;;;;;1.77;1.27;;;;;;;14.12;70.93;97651.81;1701567;83;21028;-66
2021/06/10 02:56:35;;;;;;;2.12;1.37;;;;;;;14.11;71.55;97655.39;1692707;83;21589;-65
2021/06/10 02:59:05;;;;;;;1.55;1.17;;;;;;;14.09;73.42;97658.66;1674548;85;21090;-64
2021/06/10 03:01:37;;;;;;;1.85;1.15;;;;;;;14.09;70.96;97661.27;1726344;83;20981;-64
2021/06/10 03:04:06;;;;;;;1.80;1.52;;;;;;;14.08;71.58;97657.05;1726279;83;21026;-65
2021/06/10 03:06:35;;;;;;;3.35;1.55;;;;;;;14.10;71.16;97655.06;1726305;83;21135;-65
2021/06/10 03:09:03;;;;;;;1.65;1.15;;;;;;;14.10;71.47;97656.38;1726116;83;21069;-65
2021/06/10 03:11:31;;;;;;;3.10;1.37;;;;;;;14.14;71.03;97658.96;1726477;83;21100;-65
2021/06/10 03:13:59;;;;;;;1.77;1.30;;;;;;;14.14;71.23;97656.34;1726536;83;21049;-64
2021/06/10 03:16:27;;;;;;;2.02;1.55;;;;;;;14.12;72.74;97650.50;1726257;83;21065;-65
2021/06/10 03:18:56;;;;;;;2.52;1.80;;;;;;;14.11;72.96;97658.00;1726625;83;21033;-65
2021/06/10 03:21:26;;;;;;;1.77;1.35;;;;;;;14.11;72.87;97653.60;1726607;83;21061;-65
2021/06/10 03:23:53;;;;;;;3.52;1.35;;;;;;;14.10;73.63;97649.36;1726290;83;21077;-65
2021/06/10 03:26:22;;;;;;;1.50;1.37;;;;;;;14.15;73.62;97648.84;1726118;83;21045;-65
2021/06/10 03:28:50;;;;;;;1.80;1.17;;;;;;;14.15;73.63;97653.58;1726388;83;21841;-65
2021/06/10 03:31:22;;;;;;;1.92;1.45;;;;;;;14.13;73.46;97657.33;1726453;83;21044;-64
2021/06/10 03:33:51;;;;;;;5.67;1.70;;;;;;;14.11;73.67;97660.62;1726277;83;21037;-65
2021/06/10 03:36:20;;;;;;;4.55;1.67;;;;;;;14.09;73.81;97660.78;1726311;83;21057;-65
2021/06/10 03:38:48;;;;;;;2.52;1.95;;;;;;;14.13;72.96;97668.59;1726364;83;21029;-65
2021/06/10 03:41:17;;;;;;;3.20;2.00;;;;;;;14.11;73.66;97661.92;1726204;83;21556;-64
2021/06/10 03:43:44;;;;;;;2.17;1.57;;;;;;;14.04;74.11;97661.80;1725727;83;21040;-64
2021/06/10 03:46:11;;;;;;;3.33;1.35;;;;;;;14.06;74.05;97668.14;1697814;83;21088;-64
2021/06/10 03:48:41;;;;;;;4.80;1.47;;;;;;;14.10;73.50;97670.73;1726389;83;21033;-64
2021/06/10 03:51:18;;;;;;;2.85;1.72;;;;;;;14.15;72.72;97665.81;1726424;83;21042;-65
2021/06/10 03:53:50;;;;;;;4.05;1.42;;;;;;;14.15;73.94;97669.73;1726437;83;21025;-67
2021/06/10 03:56:17;;;;;;;2.02;1.47;;;;;;;14.18;72.60;97668.89;1718898;82;21078;-65
2021/06/10 03:58:44;;;;;;;2.77;1.90;;;;;;;14.20;73.32;97664.81;1701278;84;21005;-64
2021/06/10 04:01:10;;;;;;;2.08;1.70;;;;;;;14.25;72.44;97656.77;1698987;83;21518;-64
2021/06/10 04:03:37;;;;;;;2.45;1.67;;;;;;;14.27;72.31;97660.52;1686705;85;21054;-63
2021/06/10 04:06:05;;;;;;;2.62;1.37;;;;;;;14.30;72.47;97659.36;1686366;84;21121;-67
2021/06/10 04:08:32;;;;;;;4.25;1.45;;;;;;;14.36;72.74;97666.03;1686833;84;21058;-66
2021/06/10 04:10:59;;;;;;;2.02;1.60;;;;;;;14.38;72.99;97662.77;1686653;84;21104;-66
2021/06/10 04:13:26;;;;;;;2.65;1.67;;;;;;;14.45;72.41;97669.41;1686989;85;21018;-66
2021/06/10 04:15:53;;;;;;;2.02;1.32;;;;;;;14.52;72.12;97670.33;1686626;85;21089;-65
2021/06/10 04:18:19;;;;;;;3.72;2.42;;;;;;;14.54;72.34;97665.76;1686884;85;21121;-67
2021/06/10 04:20:48;;;;;;;1.70;1.52;;;;;;;14.58;72.33;97666.55;1686973;84;21089;-67
2021/06/10 04:23:16;;;;;;;2.02;1.50;;;;;;;14.59;72.30;97662.92;1686715;85;21136;-67
2021/06/10 04:25:43;;;;;;;1.22;1.05;;;;;;;14.68;71.83;97667.11;1686647;85;21129;-66
2021/06/10 04:28:10;;;;;;;1.87;1.35;;;;;;;14.77;71.04;97670.97;1686767;85;21101;-65
2021/06/10 04:30:37;;;;;;;2.85;1.60;;;;;;;14.81;71.33;97673.55;1686490;85;21041;-65
2021/06/10 04:33:05;;;;;;;2.15;1.37;;;;;;;14.84;71.53;97675.31;1686607;84;21089;-65
2021/06/10 04:35:31;;;;;;;2.37;1.70;;;;;;;14.88;71.53;97677.89;1687081;85;21522;-65
2021/06/10 04:37:58;;;;;;;5.42;1.57;;;;;;;14.95;71.58;97667.53;1686900;85;21554;-66
2021/06/10 04:40:25;;;;;;;3.52;1.37;;;;;;;15.04;70.77;97663.38;1686710;85;21149;-67
2021/06/10 04:42:52;;;;;;;2.95;1.80;;;;;;;15.14;70.39;97663.92;1687360;85;21478;-70
2021/06/10 04:45:20;;;;;;;2.83;1.37;;;;;;;15.24;69.77;97660.24;1687023;85;21546;-65
2021/06/10 04:47:47;;;;;;;2.75;1.62;;;;;;;15.34;69.05;97661.59;1686732;85;21140;-66
2021/06/10 04:50:14;;;;;;;2.62;1.32;;;;;;;15.41;70.11;97664.30;1682973;84;21029;-67
2021/06/10 04:52:41;;;;;;;2.37;1.85;;;;;;;15.51;68.08;97656.55;1691486;84;21086;-67
2021/06/10 04:55:09;;;;;;;5.65;1.47;;;;;;;15.60;68.50;97663.29;1696446;84;21050;-66
2021/06/10 04:57:36;;;;;;;1.80;1.50;;;;;;;15.71;68.57;97662.53;1689517;83;21238;-67
2021/06/10 05:00:06;;;;;;;2.45;2.10;;;;;;;15.77;68.94;97662.61;1682320;84;21089;-66
2021/06/10 05:02:33;;;;;;;2.50;1.65;;;;;;;15.79;69.06;97665.05;1640751;86;21076;-65
2021/06/10 05:05:00;;;;;;;6.80;3.42;;;;;;;15.87;68.64;97663.16;1640891;86;21061;-65
2021/06/10 05:07:26;;;;;;;4.55;2.70;;;;;;;15.96;68.72;97658.11;1668542;84;21648;-65
2021/06/10 05:09:53;;;;;;;10.70;6.42;;;;;;;16.06;68.53;97657.83;1640806;87;21529;-66
2021/06/10 05:12:20;;;;;;;47.15;20.90;;;;;;;16.17;68.08;97652.11;1668390;86;21061;-64
2021/06/10 05:14:47;;;;;;;11.88;6.97;;;;;;;16.33;67.08;97658.42;1668500;86;21050;-68
2021/06/10 05:17:14;;;;;;;3.55;2.37;;;;;;;16.47;67.53;97656.73;1640642;87;21269;-68
2021/06/10 05:19:41;;;;;;;2.72;1.90;;;;;;;16.62;67.45;97656.20;1669016;86;21181;-64
2021/06/10 05:22:08;;;;;;;2.10;1.90;;;;;;;16.75;66.89;97656.83;1640540;86;21578;-66
2021/06/10 05:24:35;;;;;;;2.35;1.60;;;;;;;16.85;66.23;97656.80;1640628;87;21536;-65
2021/06/10 05:27:06;;;;;;;2.87;1.92;;;;;;;16.97;66.20;97651.85;1668815;86;21057;-65
2021/06/10 05:29:31;;;;;;;3.05;1.32;;;;;;;17.06;65.72;97651.54;1640204;87;21537;-64
2021/06/10 05:31:58;;;;;;;6.05;1.65;;;;;;;17.20;65.34;97649.80;1640208;87;21033;-66
2021/06/10 05:34:25;;;;;;;3.10;1.75;;;;;;;17.34;65.86;97651.52;1668796;86;21082;-70
2021/06/10 05:36:52;;;;;;;2.17;1.42;;;;;;;17.49;64.91;97648.28;1640530;86;21203;-65
2021/06/10 05:39:21;;;;;;;5.10;2.05;;;;;;;17.63;64.98;97648.36;1640648;87;21025;-66
2021/06/10 05:41:49;;;;;;;2.22;1.52;;;;;;;17.74;64.12;97642.58;1668584;86;21148;-67
2021/06/10 05:44:15;;;;;;;4.92;1.82;;;;;;;17.79;63.24;97645.41;1640141;86;21195;-68
2021/06/10 05:46:42;;;;;;;1.82;1.65;;;;;;;17.78;63.11;97646.44;1688480;84;21071;-67
2021/06/10 05:49:09;;;;;;;3.12;1.52;;;;;;;17.91;62.90;97646.47;1696501;83;21048;-65
2021/06/10 05:51:36;;;;;;;4.62;1.70;;;;;;;17.97;62.71;97649.15;1696517;85;21049;-65
2021/06/10 05:54:03;;;;;;;3.83;2.17;;;;;;;18.11;62.91;97651.30;1724414;77;21152;-64
2021/06/10 05:56:30;;;;;;;2.85;1.98;;;;;;;18.25;62.47;97649.50;1692047;85;21054;-64
2021/06/10 05:58:57;;;;;;;2.87;1.60;;;;;;;18.37;62.17;97640.84;1766582;81;21507;-64
2021/06/10 06:01:24;;;;;;;1.77;1.50;;;;;;;18.53;62.05;97649.39;1766507;81;21020;-65
2021/06/10 06:03:53;;;;;;;2.10;1.67;;;;;;;18.68;62.05;97643.44;1766784;81;21457;-64
2021/06/10 06:06:20;;;;;;;6.17;1.67;;;;;;;18.83;61.66;97638.82;1766305;80;21025;-66
2021/06/10 06:08:48;;;;;;;1.72;1.62;;;;;;;18.99;61.25;97642.86;1766693;80;21036;-64
2021/06/10 06:11:16;;;;;;;4.87;2.10;;;;;;;19.08;60.16;97644.26;1766252;81;21579;-65
2021/06/10 06:13:54;;;;;;;4.17;1.67;;;;;;;19.23;60.17;97638.27;1766567;81;21009;-65
2021/06/10 06:16:21;;;;;;;4.33;1.90;;;;;;;19.38;60.29;97629.12;1766708;80;21068;-66
2021/06/10 06:18:49;;;;;;;2.75;2.10;;;;;;;19.58;59.72;97633.55;1766707;80;21505;-66
2021/06/10 06:21:16;;;;;;;2.72;1.80;;;;;;;19.73;59.30;97631.47;1766079;81;21083;-66
2021/06/10 06:23:43;;;;;;;2.40;1.57;;;;;;;19.87;58.41;97633.88;1757034;81;21564;-66
2021/06/10 06:26:11;;;;;;;2.05;1.67;;;;;;;19.97;58.09;97637.36;1750168;82;21043;-66
2021/06/10 06:28:40;;;;;;;2.22;1.95;;;;;;;20.12;58.24;97641.84;1750143;82;21694;-67
2021/06/10 06:31:08;;;;;;;1.95;1.55;;;;;;;20.28;57.61;97641.39;1750297;82;21031;-68
2021/06/10 06:33:37;;;;;;;2.58;1.70;;;;;;;20.47;55.46;97637.52;1750268;81;21043;-66
2021/06/10 06:36:05;;;;;;;2.62;1.90;;;;;;;20.67;54.83;97633.73;1750245;82;21635;-65
2021/06/10 06:38:32;;;;;;;2.22;1.50;;;;;;;20.90;55.58;97634.97;1750146;82;21111;-65
2021/06/10 06:41:00;;;;;;;3.50;1.20;;;;;;;21.07;54.46;97627.62;1749902;81;21007;-65
2021/06/10 06:43:30;;;;;;;2.33;1.52;;;;;;;21.28;52.59;97627.77;1749895;82;21639;-64
2021/06/10 06:45:58;;;;;;;1.98;1.65;;;;;;;21.46;50.61;97629.09;1749221;82;21011;-63
2021/06/10 06:48:28;;;;;;;1.67;1.10;;;;;;;21.69;51.92;97629.75;1749832;81;21123;-65
2021/06/10 06:50:56;;;;;;;1.17;0.98;;;;;;;21.92;52.23;97629.09;1750042;81;21043;-65
2021/06/10 06:53:24;;;;;;;2.58;1.35;;;;;;;22.11;49.57;97634.65;1741162;81;21076;-69
2021/06/10 06:55:51;;;;;;;1.35;0.90;;;;;;;22.30;50.65;97634.08;1733590;83;21016;-66
2021/06/10 06:58:17;;;;;;;3.35;1.30;;;;;;;22.50;51.68;97634.61;1734069;83;21512;-65
2021/06/10 07:00:44;;;;;;;2.33;0.98;;;;;;;22.67;48.54;97636.91;1733595;81;21101;-66
2021/06/10 07:03:11;;;;;;;3.40;1.12;;;;;;;22.82;48.68;97637.31;1733786;81;21041;-67
2021/06/10 07:05:38;;;;;;;1.72;1.20;;;;;;;22.96;48.58;97636.56;1734161;82;21084;-71
2021/06/10 07:08:06;;;;;;;1.80;1.25;;;;;;;23.09;49.15;97637.16;1734749;82;21553;-70
2021/06/10 07:10:34;;;;;;;1.15;1.05;;;;;;;23.17;45.56;97630.20;1742259;82;21071;-66
2021/06/10 07:13:01;;;;;;;1.62;1.02;;;;;;;23.36;47.42;97637.50;1742264;82;21901;-67
2021/06/10 07:15:28;;;;;;;2.80;1.05;;;;;;;23.52;46.66;97639.48;1748223;82;21108;-67
2021/06/10 07:17:55;;;;;;;2.62;0.90;;;;;;;23.64;46.84;97644.25;1752793;82;21132;-63
2021/06/10 07:20:24;;;;;;;2.58;1.12;;;;;;;23.71;45.75;97647.28;1752926;82;21113;-68
2021/06/10 07:22:51;;;;;;;1.40;0.90;;;;;;;23.78;46.37;97638.67;1753395;82;21058;-65
2021/06/10 07:25:19;;;;;;;2.80;1.50;;;;;;;23.83;44.97;97644.90;1746280;82;21102;-65
2021/06/10 07:27:46;;;;;;;7.08;4.08;;;;;;;23.73;39.07;97638.07;1747836;82;21102;-66
2021/06/10 07:30:14;;;;;;;29.55;17.40;;;;;;;23.82;42.79;97638.49;1747821;82;21561;-68
2021/06/10 07:32:41;;;;;;;9.58;5.30;;;;;;;23.97;41.70;97646.75;1747737;80;21017;-66
2021/06/10 07:35:10;;;;;;;2.30;1.82;;;;;;;24.09;40.40;97643.02;1748640;80;21560;-66
2021/06/10 07:37:39;;;;;;;2.47;1.65;;;;;;;24.25;41.30;97648.13;1748420;81;21113;-67
2021/06/10 07:40:08;;;;;;;1.80;1.30;;;;;;;24.41;39.07;97650.55;1747540;80;21094;-66
2021/06/10 07:42:35;;;;;;;1.45;1.17;;;;;;;24.63;40.67;97648.02;1714394;84;21490;-66
2021/06/10 07:45:02;;;;;;;2.05;1.35;;;;;;;24.78;39.70;97653.07;1714354;82;21099;-65
2021/06/10 07:47:29;;;;;;;2.40;1.50;;;;;;;24.85;40.61;97651.61;1714430;84;21049;-66
2021/06/10 07:49:56;;;;;;;1.30;0.95;;;;;;;24.98;39.98;97653.41;1747717;82;21557;-65
2021/06/10 07:52:23;;;;;;;1.30;1.00;;;;;;;25.15;39.52;97660.56;1747954;81;21512;-66
2021/06/10 07:54:50;;;;;;;1.60;1.05;;;;;;;25.15;37.60;97651.27;1747505;81;21034;-66
2021/06/10 07:57:17;;;;;;;1.07;0.75;;;;;;;25.25;39.84;97655.42;1747750;82;21086;-66
2021/06/10 07:59:45;;;;;;;1.40;1.07;;;;;;;25.33;40.05;97660.33;1747437;80;21090;-66
2021/06/10 08:02:12;;;;;;;1.20;0.98;;;;;;;25.38;39.40;97648.42;1747348;81;21102;-67
2021/06/10 08:04:39;;;;;;;0.93;0.82;;;;;;;25.41;38.85;97651.91;1725125;82;21003;-66
2021/06/10 08:07:06;;;;;;;2.12;1.27;;;;;;;25.44;39.81;97648.27;1747487;81;21144;-66
2021/06/10 08:09:33;;;;;;;2.02;1.15;;;;;;;25.35;36.78;97651.58;1752532;80;20922;-65
2021/06/10 08:12:01;;;;;;;1.37;1.17;;;;;;;25.38;38.30;97652.41;1751250;80;21590;-65
2021/06/10 08:14:29;;;;;;;1.07;0.98;;;;;;;25.37;37.77;97642.81;1724844;81;21121;-66
2021/06/10 08:16:57;;;;;;;1.90;1.40;;;;;;;25.22;36.84;97646.59;1747836;81;21569;-65
2021/06/10 08:19:24;;;;;;;1.20;1.10;;;;;;;25.20;37.52;97645.52;1747640;82;21539;-66
2021/06/10 08:21:51;;;;;;;1.25;0.98;;;;;;;25.32;37.32;97642.77;1747752;82;21098;-66
2021/06/10 08:24:18;;;;;;;0.95;0.80;;;;;;;25.37;37.48;97641.48;1747508;80;21110;-67
2021/06/10 08:26:46;;;;;;;1.50;0.85;;;;;;;25.39;36.66;97648.19;1747120;82;21062;-66
2021/06/10 08:29:13;;;;;;;2.08;1.32;;;;;;;25.38;37.02;97649.23;1746993;81;21160;-69
2021/06/10 08:31:41;;;;;;;2.15;1.00;;;;;;;25.38;34.54;97645.24;1724057;82;21699;-68
2021/06/10 08:34:08;;;;;;;1.80;1.20;;;;;;;25.65;37.41;97648.55;1747563;82;21061;-67
2021/06/10 08:36:35;;;;;;;3.42;1.17;;;;;;;25.67;37.05;97655.77;1747911;82;21041;-68
2021/06/10 08:39:05;;;;;;;1.92;1.15;;;;;;;25.80;35.92;97654.87;1747694;81;21034;-67
2021/06/10 08:41:34;;;;;;;1.30;1.00;;;;;;;25.86;36.53;97661.07;1747670;81;21187;-67
2021/06/10 08:44:01;;;;;;;1.65;1.10;;;;;;;25.90;37.20;97657.67;1747818;80;21513;-68
2021/06/10 08:46:30;;;;;;;2.45;0.98;;;;;;;25.87;36.97;97660.03;1747331;81;21518;-68
2021/06/10 08:48:57;;;;;;;2.75;1.12;;;;;;;25.87;37.54;97664.02;1747136;82;21454;-68
2021/06/10 08:51:24;;;;;;;1.12;1.00;;;;;;;25.73;33.97;97661.42;1754792;82;21085;-67
2021/06/10 08:53:52;;;;;;;1.52;1.17;;;;;;;25.85;33.46;97658.12;1753250;81;21049;-66
2021/06/10 08:56:19;;;;;;;1.20;1.10;;;;;;;25.96;35.11;97659.85;1754192;81;21034;-68
2021/06/10 08:58:47;;;;;;;1.17;1.00;;;;;;;26.08;36.22;97655.73;1746767;82;21105;-68
2021/06/10 09:01:15;;;;;;;1.25;1.15;;;;;;;26.12;35.86;97664.30;1714244;84;21078;-68
2021/06/10 09:03:43;;;;;;;2.02;1.47;;;;;;;26.22;33.81;97659.14;1747524;82;21054;-67
2021/06/10 09:06:18;;;;;;;2.22;1.15;;;;;;;26.11;33.97;97657.37;1747428;81;21184;-67
2021/06/10 09:08:48;;;;;;;1.45;1.10;;;;;;;26.19;34.66;97658.81;1747915;82;21459;-68
2021/06/10 09:11:23;;;;;;;1.30;1.02;;;;;;;26.23;34.99;97663.91;1747788;82;21041;-67
2021/06/10 09:13:58;;;;;;;1.98;1.35;;;;;;;26.29;34.34;97667.73;1747017;81;21175;-68
2021/06/10 09:16:29;;;;;;;;;;;;;;;26.23;31.77;97658.07;1750268;82;21589;-66
2021/06/10 09:19:09;;;;;;;1.37;1.07;;;;;;;26.36;33.34;97668.86;1747987;80;20109;-66
2021/06/10 09:21:55;;;;;;;2.80;1.25;;;;;;;26.38;32.22;97659.55;1746891;82;21590;-67
2021/06/10 09:24:30;;;;;;;1.20;1.05;;;;;;;26.57;33.43;97668.02;1747920;82;21093;-67
2021/06/10 09:27:10;;;;;;;1.87;1.10;;;;;;;26.64;33.42;97666.48;1748162;82;21053;-69
2021/06/10 09:29:42;;;;;;;2.02;1.45;;;;;;;26.51;29.88;97663.69;1747417;82;21074;-67
2021/06/10 09:32:27;;;;;;;1.45;1.20;;;;;;;26.32;32.07;97665.89;1747887;82;20962;-67
2021/06/10 09:35:02;;;;;;;1.50;1.05;;;;;;;26.63;32.09;97667.00;1747828;82;21163;-67
2021/06/10 09:37:34;;;;;;;1.52;1.20;;;;;;;26.88;32.61;97651.29;1755284;80;21025;-67
2021/06/10 09:40:06;;;;;;;1.25;1.05;;;;;;;27.06;32.50;97651.94;1747153;81;21124;-68
2021/06/10 09:42:36;;;;;;;1.17;1.02;;;;;;;27.17;32.55;97658.95;1747897;81;21146;-67
2021/06/10 09:45:28;;;;;;;2.20;1.00;;;;;;;27.24;31.29;97658.19;1747769;82;21002;-67
2021/06/10 09:48:00;;;;;;;1.80;1.50;;;;;;;27.42;31.74;97653.80;1718084;83;21127;-66
2021/06/10 09:50:52;;;;;;;1.22;1.10;;;;;;;27.71;32.79;97649.70;1717488;83;21110;-68
2021/06/10 09:53:23;;;;;;;1.52;1.20;;;;;;;28.05;31.27;97647.99;1717643;83;21024;-67
2021/06/10 09:55:53;;;;;;;1.35;1.25;;;;;;;28.16;30.28;97648.32;1718006;83;21142;-65
2021/06/10 09:58:35;;;;;;;2.00;1.50;;;;;;;28.00;30.19;97650.11;1685758;85;21070;-67
2021/06/10 10:01:03;;;;;;;1.72;1.20;;;;;;;27.91;31.31;97641.52;1716907;82;21084;-67
2021/06/10 10:03:40;;;;;;;1.42;1.32;;;;;;;28.41;30.69;97639.02;1717282;83;21048;-67
2021/06/10 10:06:06;;;;;;;2.22;1.20;;;;;;;28.64;28.57;97639.85;1716998;83;21016;-67
2021/06/10 10:08:35;;;;;;;1.45;1.20;;;;;;;29.13;29.30;97633.48;1685669;85;21594;-67
2021/06/10 10:11:04;;;;;;;2.20;1.20;;;;;;;29.61;28.45;97631.27;1718087;83;21540;-67
2021/06/10 10:13:32;;;;;;;2.98;1.07;;;;;;;29.90;28.41;97627.44;1718044;83;21036;-67
2021/06/10 10:16:01;;;;;;;1.40;1.17;;;;;;;30.13;31.06;97634.28;1717991;83;21067;-67
2021/06/10 10:18:28;;;;;;;2.30;1.05;;;;;;;30.34;30.40;97621.58;1685698;85;21042;-68
2021/06/10 10:21:01;;;;;;;1.52;1.00;;;;;;;30.44;30.46;97621.53;1717954;83;21124;-67
2021/06/10 10:23:29;;;;;;;1.57;1.12;;;;;;;30.49;28.99;97619.37;1717912;83;21029;-67
2021/06/10 10:26:06;;;;;;;1.05;0.95;;;;;;;30.65;28.70;97617.38;1685695;85;21034;-67
2021/06/10 10:28:35;;;;;;;1.07;0.82;;;;;;;30.75;28.31;97622.11;1717209;83;21500;-66
2021/06/10 10:31:06;;;;;;;1.42;1.05;;;;;;;30.84;30.24;97619.64;1685659;85;21042;-67
2021/06/10 10:33:43;;;;;;;1.10;1.00;;;;;;;30.89;29.78;97623.63;1685635;85;21057;-69
2021/06/10 10:36:30;;;;;;;2.45;0.90;;;;;;;30.80;28.00;97618.59;1685715;85;21089;-69
2021/06/10 10:39:04;;;;;;;1.20;1.07;;;;;;;30.88;28.87;97613.97;1717036;83;21108;-69
2021/06/10 10:41:32;;;;;;;1.25;0.90;;;;;;;30.94;28.92;97613.64;1685668;85;21549;-68
2021/06/10 10:44:19;;;;;;;1.10;0.95;;;;;;;31.11;27.93;97609.23;1717506;83;21164;-68
2021/06/10 10:46:41;;;;;;;2.40;1.27;;;;;;;31.37;27.31;97612.45;1716365;83;21126;-68
2021/06/10 10:49:22;;;;;;;1.62;1.30;;;;;;;31.77;26.08;97600.48;1718125;83;21147;-68
2021/06/10 10:51:49;;;;;;;1.05;0.95;;;;;;;32.16;28.25;97598.38;1718072;83;21532;-69
2021/06/10 10:54:36;;;;;;;1.45;1.17;;;;;;;32.37;25.45;97595.64;1717879;83;21539;-69
2021/06/10 10:57:05;;;;;;;1.10;1.00;;;;;;;32.51;24.05;97586.30;1685908;85;21102;-66
2021/06/10 10:59:50;;;;;;;2.15;1.37;;;;;;;32.44;25.61;97588.03;1717882;83;21146;-67
2021/06/10 11:02:18;;;;;;;1.10;1.00;;;;;;;32.44;25.61;97588.03;1717815;83;21480;-67
2021/06/10 11:04:56;;;;;;;1.60;1.32;;;;;;;32.74;25.10;97578.70;1685542;85;21054;-67
2021/06/10 11:07:43;;;;;;;1.70;1.12;;;;;;;32.41;23.26;97571.13;1718317;83;21504;-68
2021/06/10 11:10:18;;;;;;;1.65;1.30;;;;;;;32.56;24.22;97570.11;1718284;83;21528;-67
2021/06/10 11:12:54;;;;;;;1.20;1.10;;;;;;;32.71;23.67;97552.95;1718601;83;21007;-66
2021/06/10 11:15:26;;;;;;;1.60;1.30;;;;;;;33.30;26.65;97557.55;1685828;85;21463;-68
2021/06/10 11:17:58;;;;;;;1.40;1.15;;;;;;;33.65;23.00;97552.03;1717735;83;21524;-69
2021/06/10 11:20:40;;;;;;;1.10;1.00;;;;;;;34.10;24.22;97548.34;1717798;83;20980;-67
2021/06/10 11:23:14;;;;;;;1.72;1.42;;;;;;;34.16;22.59;97545.80;1718080;83;21093;-68
2021/06/10 11:25:52;;;;;;;1.70;1.60;;;;;;;33.56;21.64;97539.80;1718090;83;21098;-67
2021/06/10 11:28:23;;;;;;;2.87;1.30;;;;;;;33.85;22.71;97532.76;1718070;83;21079;-69
2021/06/10 11:30:54;;;;;;;1.80;1.70;;;;;;;34.33;22.47;97524.37;1685303;85;21153;-69
2021/06/10 11:33:27;;;;;;;2.55;1.47;;;;;;;34.42;22.84;97524.98;1718026;83;21088;-68
2021/06/10 11:36:06;;;;;;;1.98;1.60;;;;;;;34.55;22.78;97526.83;1718271;83;21461;-69
2021/06/10 11:38:47;;;;;;;2.15;1.30;;;;;;;33.54;22.92;97524.48;1685869;85;21053;-69
2021/06/10 11:41:23;;;;;;;1.45;1.20;;;;;;;33.90;22.76;97526.44;1717043;83;21089;-68
2021/06/10 11:44:00;;;;;;;1.30;1.20;;;;;;;34.05;23.10;97528.23;1685774;85;21037;-67
2021/06/10 11:46:40;;;;;;;2.22;1.45;;;;;;;34.11;23.05;97525.69;1687167;83;21534;-69